sensor_id;sensor_type;location;lat;lon;timestamp;P1;durP1;ratioP1;P2;durP2;ratioP2
53714;SDS011;39608;55.630;37.864;2023-04-08T00:03:38;4.53;;;2.78;;
53714;SDS011;39608;55.630;37.864;2023-04-08T00:08:39;4.57;;;2.95;;
53714;SDS011;39608;55.630;37.864;2023-04-08T00:13:42;4.68;;;2.65;;
53714;SDS011;39608;55.630;37.864;2023-04-08T00:18:46;5.60;;;2.30;;
53714;SDS011;39608;55.630;37.864;2023-04-08T00:23:48;11.27;;;2.60;;
53714;SDS011;39608;55.630;37.864;2023-04-08T00:28:51;10.95;;;2.30;;
53714;SDS011;39608;55.630;37.864;2023-04-08T00:33:55;6.88;;;3.10;;
53714;SDS011;39608;55.630;37.864;2023-04-08T00:38:58;7.22;;;2.33;;
53714;SDS011;39608;55.630;37.864;2023-04-08T00:44:00;4.65;;;2.65;;
53714;SDS011;39608;55.630;37.864;2023-04-08T00:49:03;4.50;;;2.40;;
53714;SDS011;39608;55.630;37.864;2023-04-08T00:54:06;6.43;;;3.03;;
53714;SDS011;39608;55.630;37.864;2023-04-08T00:59:08;4.30;;;2.50;;
53714;SDS011;39608;55.630;37.864;2023-04-08T01:04:15;4.53;;;2.67;;
53714;SDS011;39608;55.630;37.864;2023-04-08T01:09:31;3.72;;;2.40;;
53714;SDS011;39608;55.630;37.864;2023-04-08T01:14:37;6.95;;;3.03;;
53714;SDS011;39608;55.630;37.864;2023-04-08T01:19:44;5.30;;;3.03;;
53714;SDS011;39608;55.630;37.864;2023-04-08T01:24:47;5.32;;;2.78;;
53714;SDS011;39608;55.630;37.864;2023-04-08T01:29:53;5.13;;;2.63;;
53714;SDS011;39608;55.630;37.864;2023-04-08T01:34:56;4.47;;;2.78;;
53714;SDS011;39608;55.630;37.864;2023-04-08T01:39:59;6.88;;;3.03;;
53714;SDS011;39608;55.630;37.864;2023-04-08T01:45:05;4.10;;;2.40;;
53714;SDS011;39608;55.630;37.864;2023-04-08T01:50:09;13.95;;;3.22;;
53714;SDS011;39608;55.630;37.864;2023-04-08T01:55:14;4.05;;;2.85;;
53714;SDS011;39608;55.630;37.864;2023-04-08T02:00:21;5.13;;;2.88;;
53714;SDS011;39608;55.630;37.864;2023-04-08T02:05:26;6.25;;;2.78;;
53714;SDS011;39608;55.630;37.864;2023-04-08T02:10:28;5.03;;;2.80;;
53714;SDS011;39608;55.630;37.864;2023-04-08T02:15:32;6.45;;;2.72;;
53714;SDS011;39608;55.630;37.864;2023-04-08T02:20:37;8.05;;;2.92;;
53714;SDS011;39608;55.630;37.864;2023-04-08T02:25:42;4.68;;;2.92;;
53714;SDS011;39608;55.630;37.864;2023-04-08T02:30:48;4.00;;;2.28;;
53714;SDS011;39608;55.630;37.864;2023-04-08T02:35:51;8.82;;;2.92;;
53714;SDS011;39608;55.630;37.864;2023-04-08T02:40:56;4.93;;;2.53;;
53714;SDS011;39608;55.630;37.864;2023-04-08T02:45:59;9.57;;;2.45;;
53714;SDS011;39608;55.630;37.864;2023-04-08T02:51:03;5.47;;;2.75;;
53714;SDS011;39608;55.630;37.864;2023-04-08T02:56:05;5.75;;;2.10;;
53714;SDS011;39608;55.630;37.864;2023-04-08T03:01:08;5.15;;;2.30;;
53714;SDS011;39608;55.630;37.864;2023-04-08T03:06:10;5.60;;;2.30;;
53714;SDS011;39608;55.630;37.864;2023-04-08T03:11:12;11.27;;;2.58;;
53714;SDS011;39608;55.630;37.864;2023-04-08T03:16:16;5.63;;;2.20;;
53714;SDS011;39608;55.630;37.864;2023-04-08T03:21:18;6.88;;;1.90;;
53714;SDS011;39608;55.630;37.864;2023-04-08T03:26:20;3.35;;;1.58;;
53714;SDS011;39608;55.630;37.864;2023-04-08T03:31:23;5.13;;;1.92;;
53714;SDS011;39608;55.630;37.864;2023-04-08T03:36:25;2.97;;;1.70;;
53714;SDS011;39608;55.630;37.864;2023-04-08T03:41:27;4.15;;;1.95;;
53714;SDS011;39608;55.630;37.864;2023-04-08T03:46:31;3.17;;;1.92;;
53714;SDS011;39608;55.630;37.864;2023-04-08T03:51:33;5.10;;;2.13;;
53714;SDS011;39608;55.630;37.864;2023-04-08T03:56:35;3.25;;;1.98;;
53714;SDS011;39608;55.630;37.864;2023-04-08T04:01:38;9.85;;;2.13;;
53714;SDS011;39608;55.630;37.864;2023-04-08T04:06:40;4.18;;;1.95;;
53714;SDS011;39608;55.630;37.864;2023-04-08T04:11:42;2.58;;;1.45;;
53714;SDS011;39608;55.630;37.864;2023-04-08T04:16:46;10.23;;;2.00;;
53714;SDS011;39608;55.630;37.864;2023-04-08T04:21:48;5.85;;;2.05;;
53714;SDS011;39608;55.630;37.864;2023-04-08T04:26:50;3.35;;;1.83;;
53714;SDS011;39608;55.630;37.864;2023-04-08T04:31:53;3.53;;;1.88;;
53714;SDS011;39608;55.630;37.864;2023-04-08T04:36:55;3.55;;;2.00;;
53714;SDS011;39608;55.630;37.864;2023-04-08T04:41:57;7.82;;;2.05;;
53714;SDS011;39608;55.630;37.864;2023-04-08T04:47:00;6.88;;;2.10;;
53714;SDS011;39608;55.630;37.864;2023-04-08T04:52:03;6.45;;;2.25;;
53714;SDS011;39608;55.630;37.864;2023-04-08T04:57:05;5.32;;;2.45;;
53714;SDS011;39608;55.630;37.864;2023-04-08T05:02:09;3.55;;;2.20;;
53714;SDS011;39608;55.630;37.864;2023-04-08T05:07:11;14.57;;;2.35;;
53714;SDS011;39608;55.630;37.864;2023-04-08T05:12:13;14.07;;;2.45;;
53714;SDS011;39608;55.630;37.864;2023-04-08T05:17:16;15.43;;;2.95;;
53714;SDS011;39608;55.630;37.864;2023-04-08T05:22:18;7.15;;;2.80;;
53714;SDS011;39608;55.630;37.864;2023-04-08T05:27:20;7.25;;;3.60;;
53714;SDS011;39608;55.630;37.864;2023-04-08T05:32:24;13.73;;;3.47;;
53714;SDS011;39608;55.630;37.864;2023-04-08T05:37:26;4.38;;;2.63;;
53714;SDS011;39608;55.630;37.864;2023-04-08T05:42:30;12.00;;;3.13;;
53714;SDS011;39608;55.630;37.864;2023-04-08T05:47:33;6.97;;;3.35;;
53714;SDS011;39608;55.630;37.864;2023-04-08T05:52:35;16.80;;;4.15;;
53714;SDS011;39608;55.630;37.864;2023-04-08T05:57:37;10.95;;;3.60;;
53714;SDS011;39608;55.630;37.864;2023-04-08T06:02:41;8.45;;;3.97;;
53714;SDS011;39608;55.630;37.864;2023-04-08T06:07:43;15.20;;;3.63;;
53714;SDS011;39608;55.630;37.864;2023-04-08T06:12:45;9.98;;;4.13;;
53714;SDS011;39608;55.630;37.864;2023-04-08T06:17:49;9.27;;;3.60;;
53714;SDS011;39608;55.630;37.864;2023-04-08T06:22:51;9.90;;;4.00;;
53714;SDS011;39608;55.630;37.864;2023-04-08T06:27:53;13.50;;;4.72;;
53714;SDS011;39608;55.630;37.864;2023-04-08T06:32:56;13.80;;;4.82;;
53714;SDS011;39608;55.630;37.864;2023-04-08T06:37:58;12.55;;;4.07;;
53714;SDS011;39608;55.630;37.864;2023-04-08T06:43:00;17.75;;;4.22;;
53714;SDS011;39608;55.630;37.864;2023-04-08T06:48:03;13.30;;;5.50;;
53714;SDS011;39608;55.630;37.864;2023-04-08T06:53:08;9.90;;;4.55;;
53714;SDS011;39608;55.630;37.864;2023-04-08T06:58:10;16.08;;;4.07;;
53714;SDS011;39608;55.630;37.864;2023-04-08T07:03:13;28.80;;;4.22;;
53714;SDS011;39608;55.630;37.864;2023-04-08T07:08:15;25.08;;;4.57;;
53714;SDS011;39608;55.630;37.864;2023-04-08T07:13:17;18.42;;;5.38;;
53714;SDS011;39608;55.630;37.864;2023-04-08T07:18:21;11.55;;;4.30;;
53714;SDS011;39608;55.630;37.864;2023-04-08T07:23:23;17.10;;;4.90;;
53714;SDS011;39608;55.630;37.864;2023-04-08T07:54:00;19.63;;;4.88;;
53714;SDS011;39608;55.630;37.864;2023-04-08T07:59:37;20.42;;;4.68;;
53714;SDS011;39608;55.630;37.864;2023-04-08T08:05:08;18.13;;;4.53;;
53714;SDS011;39608;55.630;37.864;2023-04-08T08:10:18;17.33;;;4.78;;
53714;SDS011;39608;55.630;37.864;2023-04-08T08:15:23;23.35;;;5.13;;
53714;SDS011;39608;55.630;37.864;2023-04-08T08:20:28;12.85;;;4.60;;
53714;SDS011;39608;55.630;37.864;2023-04-08T08:25:41;11.45;;;3.95;;
53714;SDS011;39608;55.630;37.864;2023-04-08T08:30:43;8.20;;;3.67;;
53714;SDS011;39608;55.630;37.864;2023-04-08T08:35:47;7.60;;;3.20;;
53714;SDS011;39608;55.630;37.864;2023-04-08T08:40:52;10.10;;;3.88;;
53714;SDS011;39608;55.630;37.864;2023-04-08T08:45:55;15.90;;;3.30;;
53714;SDS011;39608;55.630;37.864;2023-04-08T08:51:00;8.65;;;2.90;;
53714;SDS011;39608;55.630;37.864;2023-04-08T08:56:05;7.45;;;2.38;;
53714;SDS011;39608;55.630;37.864;2023-04-08T09:01:31;6.15;;;3.00;;
53714;SDS011;39608;55.630;37.864;2023-04-08T09:06:35;12.40;;;2.65;;
53714;SDS011;39608;55.630;37.864;2023-04-08T09:11:38;13.60;;;3.50;;
53714;SDS011;39608;55.630;37.864;2023-04-08T09:16:41;10.65;;;3.03;;
53714;SDS011;39608;55.630;37.864;2023-04-08T09:21:47;21.75;;;3.42;;
53714;SDS011;39608;55.630;37.864;2023-04-08T09:27:06;16.98;;;3.42;;
53714;SDS011;39608;55.630;37.864;2023-04-08T09:32:09;6.75;;;3.00;;
53714;SDS011;39608;55.630;37.864;2023-04-08T09:37:13;7.85;;;2.90;;
53714;SDS011;39608;55.630;37.864;2023-04-08T09:42:15;7.32;;;2.97;;
53714;SDS011;39608;55.630;37.864;2023-04-08T09:47:21;10.18;;;2.78;;
53714;SDS011;39608;55.630;37.864;2023-04-08T09:52:32;8.25;;;2.72;;
53714;SDS011;39608;55.630;37.864;2023-04-08T09:57:39;8.95;;;3.08;;
53714;SDS011;39608;55.630;37.864;2023-04-08T10:02:48;5.10;;;3.03;;
53714;SDS011;39608;55.630;37.864;2023-04-08T10:07:57;13.35;;;3.40;;
53714;SDS011;39608;55.630;37.864;2023-04-08T10:13:00;6.25;;;2.70;;
53714;SDS011;39608;55.630;37.864;2023-04-08T10:23:55;12.93;;;3.28;;
53714;SDS011;39608;55.630;37.864;2023-04-08T10:34:50;9.40;;;3.17;;
53714;SDS011;39608;55.630;37.864;2023-04-08T10:39:55;3.58;;;2.75;;
53714;SDS011;39608;55.630;37.864;2023-04-08T10:45:00;4.50;;;2.70;;
53714;SDS011;39608;55.630;37.864;2023-04-08T10:50:11;22.20;;;2.90;;
53714;SDS011;39608;55.630;37.864;2023-04-08T10:55:15;5.18;;;2.72;;
53714;SDS011;39608;55.630;37.864;2023-04-08T11:00:18;11.18;;;2.90;;
53714;SDS011;39608;55.630;37.864;2023-04-08T11:05:32;8.68;;;3.20;;
53714;SDS011;39608;55.630;37.864;2023-04-08T11:10:37;8.43;;;2.95;;
53714;SDS011;39608;55.630;37.864;2023-04-08T11:15:39;9.68;;;3.13;;
53714;SDS011;39608;55.630;37.864;2023-04-08T11:20:45;6.43;;;3.13;;
53714;SDS011;39608;55.630;37.864;2023-04-08T11:25:52;7.15;;;3.08;;
53714;SDS011;39608;55.630;37.864;2023-04-08T11:30:54;6.47;;;2.90;;
53714;SDS011;39608;55.630;37.864;2023-04-08T11:35:59;9.43;;;3.60;;
53714;SDS011;39608;55.630;37.864;2023-04-08T11:41:04;16.80;;;3.88;;
53714;SDS011;39608;55.630;37.864;2023-04-08T11:46:09;11.65;;;3.92;;
53714;SDS011;39608;55.630;37.864;2023-04-08T11:51:11;5.38;;;3.78;;
53714;SDS011;39608;55.630;37.864;2023-04-08T11:56:16;10.88;;;3.88;;
53714;SDS011;39608;55.630;37.864;2023-04-08T12:01:18;8.23;;;3.22;;
53714;SDS011;39608;55.630;37.864;2023-04-08T12:06:21;10.18;;;3.20;;
53714;SDS011;39608;55.630;37.864;2023-04-08T12:11:25;9.38;;;2.92;;
53714;SDS011;39608;55.630;37.864;2023-04-08T12:16:27;8.75;;;2.80;;
53714;SDS011;39608;55.630;37.864;2023-04-08T12:21:29;6.20;;;3.83;;
53714;SDS011;39608;55.630;37.864;2023-04-08T12:26:32;13.15;;;3.75;;
53714;SDS011;39608;55.630;37.864;2023-04-08T12:31:34;10.07;;;3.50;;
53714;SDS011;39608;55.630;37.864;2023-04-08T12:36:36;17.08;;;3.35;;
53714;SDS011;39608;55.630;37.864;2023-04-08T12:41:42;15.73;;;3.30;;
53714;SDS011;39608;55.630;37.864;2023-04-08T12:46:44;6.93;;;2.90;;
53714;SDS011;39608;55.630;37.864;2023-04-08T12:51:46;11.18;;;3.38;;
53714;SDS011;39608;55.630;37.864;2023-04-08T12:56:51;3.33;;;2.70;;
53714;SDS011;39608;55.630;37.864;2023-04-08T13:01:53;8.82;;;3.28;;
53714;SDS011;39608;55.630;37.864;2023-04-08T13:06:55;8.65;;;2.80;;
53714;SDS011;39608;55.630;37.864;2023-04-08T13:12:00;7.38;;;2.83;;
53714;SDS011;39608;55.630;37.864;2023-04-08T13:17:02;10.77;;;2.90;;
53714;SDS011;39608;55.630;37.864;2023-04-08T13:22:06;9.90;;;3.55;;
53714;SDS011;39608;55.630;37.864;2023-04-08T13:27:10;6.25;;;3.05;;
53714;SDS011;39608;55.630;37.864;2023-04-08T13:32:12;9.73;;;2.95;;
53714;SDS011;39608;55.630;37.864;2023-04-08T13:37:13;4.00;;;2.97;;
53714;SDS011;39608;55.630;37.864;2023-04-08T13:42:17;9.80;;;2.92;;
53714;SDS011;39608;55.630;37.864;2023-04-08T13:47:19;7.03;;;2.92;;
53714;SDS011;39608;55.630;37.864;2023-04-08T13:52:21;4.10;;;3.15;;
53714;SDS011;39608;55.630;37.864;2023-04-08T13:57:24;13.38;;;3.45;;
53714;SDS011;39608;55.630;37.864;2023-04-08T14:02:26;11.63;;;3.47;;
53714;SDS011;39608;55.630;37.864;2023-04-08T14:07:28;12.95;;;3.80;;
53714;SDS011;39608;55.630;37.864;2023-04-08T14:12:32;11.55;;;3.80;;
53714;SDS011;39608;55.630;37.864;2023-04-08T14:17:33;9.23;;;4.15;;
53714;SDS011;39608;55.630;37.864;2023-04-08T14:22:38;11.93;;;3.65;;
53714;SDS011;39608;55.630;37.864;2023-04-08T14:27:42;8.40;;;3.97;;
53714;SDS011;39608;55.630;37.864;2023-04-08T14:32:45;9.68;;;4.30;;
53714;SDS011;39608;55.630;37.864;2023-04-08T14:37:47;6.35;;;4.30;;
53714;SDS011;39608;55.630;37.864;2023-04-08T14:42:50;9.60;;;3.95;;
53714;SDS011;39608;55.630;37.864;2023-04-08T14:47:53;14.98;;;4.05;;
53714;SDS011;39608;55.630;37.864;2023-04-08T14:52:55;8.88;;;4.10;;
53714;SDS011;39608;55.630;37.864;2023-04-08T14:57:58;10.32;;;4.68;;
53714;SDS011;39608;55.630;37.864;2023-04-08T15:03:00;9.57;;;4.45;;
53714;SDS011;39608;55.630;37.864;2023-04-08T15:08:02;11.52;;;4.45;;
53714;SDS011;39608;55.630;37.864;2023-04-08T15:13:05;8.98;;;4.97;;
53714;SDS011;39608;55.630;37.864;2023-04-08T15:18:07;14.52;;;7.53;;
53714;SDS011;39608;55.630;37.864;2023-04-08T15:23:09;17.42;;;6.80;;
53714;SDS011;39608;55.630;37.864;2023-04-08T15:28:13;10.18;;;5.65;;
53714;SDS011;39608;55.630;37.864;2023-04-08T15:33:15;9.90;;;6.05;;
53714;SDS011;39608;55.630;37.864;2023-04-08T15:38:17;13.90;;;5.28;;
53714;SDS011;39608;55.630;37.864;2023-04-08T15:43:20;16.42;;;6.07;;
53714;SDS011;39608;55.630;37.864;2023-04-08T15:48:22;21.13;;;6.00;;
53714;SDS011;39608;55.630;37.864;2023-04-08T15:53:24;13.18;;;5.25;;
53714;SDS011;39608;55.630;37.864;2023-04-08T15:58:28;9.55;;;4.90;;
53714;SDS011;39608;55.630;37.864;2023-04-08T16:03:30;20.55;;;5.85;;
53714;SDS011;39608;55.630;37.864;2023-04-08T16:08:33;12.32;;;4.80;;
53714;SDS011;39608;55.630;37.864;2023-04-08T16:13:37;15.57;;;5.68;;
53714;SDS011;39608;55.630;37.864;2023-04-08T16:18:41;9.70;;;5.35;;
53714;SDS011;39608;55.630;37.864;2023-04-08T16:23:43;13.52;;;5.43;;
53714;SDS011;39608;55.630;37.864;2023-04-08T16:28:46;14.00;;;5.03;;
53714;SDS011;39608;55.630;37.864;2023-04-08T16:33:48;10.38;;;5.35;;
53714;SDS011;39608;55.630;37.864;2023-04-08T16:38:50;14.70;;;5.10;;
53714;SDS011;39608;55.630;37.864;2023-04-08T16:43:55;16.05;;;5.70;;
53714;SDS011;39608;55.630;37.864;2023-04-08T16:48:57;15.40;;;5.57;;
53714;SDS011;39608;55.630;37.864;2023-04-08T16:53:59;19.23;;;7.15;;
53714;SDS011;39608;55.630;37.864;2023-04-08T16:59:02;13.30;;;5.90;;
53714;SDS011;39608;55.630;37.864;2023-04-08T17:04:07;15.80;;;7.38;;
53714;SDS011;39608;55.630;37.864;2023-04-08T17:09:09;22.48;;;6.70;;
53714;SDS011;39608;55.630;37.864;2023-04-08T17:14:12;20.42;;;7.05;;
53714;SDS011;39608;55.630;37.864;2023-04-08T17:19:14;22.83;;;7.25;;
53714;SDS011;39608;55.630;37.864;2023-04-08T17:24:17;15.30;;;6.88;;
53714;SDS011;39608;55.630;37.864;2023-04-08T17:29:20;20.15;;;7.53;;
53714;SDS011;39608;55.630;37.864;2023-04-08T17:34:22;24.60;;;8.13;;
53714;SDS011;39608;55.630;37.864;2023-04-08T17:39:25;26.70;;;8.70;;
53714;SDS011;39608;55.630;37.864;2023-04-08T17:44:28;20.33;;;8.80;;
53714;SDS011;39608;55.630;37.864;2023-04-08T17:49:31;21.13;;;9.27;;
53714;SDS011;39608;55.630;37.864;2023-04-08T17:54:33;20.23;;;9.32;;
53714;SDS011;39608;55.630;37.864;2023-04-08T17:59:36;16.77;;;8.63;;
53714;SDS011;39608;55.630;37.864;2023-04-08T18:04:38;19.17;;;7.97;;
53714;SDS011;39608;55.630;37.864;2023-04-08T18:09:41;16.45;;;8.10;;
53714;SDS011;39608;55.630;37.864;2023-04-08T18:14:44;16.33;;;7.63;;
53714;SDS011;39608;55.630;37.864;2023-04-08T18:19:46;13.75;;;8.57;;
53714;SDS011;39608;55.630;37.864;2023-04-08T18:24:48;18.73;;;8.52;;
53714;SDS011;39608;55.630;37.864;2023-04-08T18:29:51;21.83;;;9.27;;
53714;SDS011;39608;55.630;37.864;2023-04-08T18:34:53;30.45;;;9.35;;
53714;SDS011;39608;55.630;37.864;2023-04-08T18:39:55;25.77;;;9.25;;
53714;SDS011;39608;55.630;37.864;2023-04-08T18:44:59;18.42;;;8.95;;
53714;SDS011;39608;55.630;37.864;2023-04-08T18:50:03;14.48;;;8.85;;
53714;SDS011;39608;55.630;37.864;2023-04-08T18:55:05;21.80;;;7.95;;
53714;SDS011;39608;55.630;37.864;2023-04-08T19:00:09;18.02;;;8.25;;
53714;SDS011;39608;55.630;37.864;2023-04-08T19:05:12;18.10;;;8.27;;
53714;SDS011;39608;55.630;37.864;2023-04-08T19:10:14;23.15;;;8.27;;
53714;SDS011;39608;55.630;37.864;2023-04-08T19:15:17;21.10;;;7.72;;
53714;SDS011;39608;55.630;37.864;2023-04-08T19:20:19;17.17;;;8.32;;
53714;SDS011;39608;55.630;37.864;2023-04-08T19:25:24;21.10;;;7.90;;
53714;SDS011;39608;55.630;37.864;2023-04-08T19:30:28;15.02;;;6.60;;
53714;SDS011;39608;55.630;37.864;2023-04-08T19:35:30;19.10;;;7.22;;
53714;SDS011;39608;55.630;37.864;2023-04-08T19:40:32;14.10;;;6.45;;
53714;SDS011;39608;55.630;37.864;2023-04-08T19:45:35;22.73;;;6.63;;
53714;SDS011;39608;55.630;37.864;2023-04-08T19:50:37;16.55;;;6.30;;
53714;SDS011;39608;55.630;37.864;2023-04-08T19:55:39;14.05;;;6.20;;
53714;SDS011;39608;55.630;37.864;2023-04-08T20:00:43;14.07;;;6.38;;
53714;SDS011;39608;55.630;37.864;2023-04-08T20:05:45;15.40;;;6.10;;
53714;SDS011;39608;55.630;37.864;2023-04-08T20:10:48;15.55;;;6.53;;
53714;SDS011;39608;55.630;37.864;2023-04-08T20:15:52;14.77;;;5.82;;
53714;SDS011;39608;55.630;37.864;2023-04-08T20:20:54;14.68;;;6.45;;
53714;SDS011;39608;55.630;37.864;2023-04-08T20:25:56;13.70;;;5.97;;
53714;SDS011;39608;55.630;37.864;2023-04-08T20:31:00;13.57;;;5.97;;
53714;SDS011;39608;55.630;37.864;2023-04-08T20:36:02;12.27;;;6.38;;
53714;SDS011;39608;55.630;37.864;2023-04-08T20:41:04;13.45;;;6.47;;
53714;SDS011;39608;55.630;37.864;2023-04-08T20:46:08;13.95;;;6.15;;
53714;SDS011;39608;55.630;37.864;2023-04-08T20:51:10;13.73;;;6.95;;
53714;SDS011;39608;55.630;37.864;2023-04-08T20:56:12;19.88;;;6.90;;
53714;SDS011;39608;55.630;37.864;2023-04-08T21:01:16;14.82;;;6.95;;
53714;SDS011;39608;55.630;37.864;2023-04-08T21:06:18;16.70;;;7.20;;
53714;SDS011;39608;55.630;37.864;2023-04-08T21:11:20;15.60;;;7.22;;
53714;SDS011;39608;55.630;37.864;2023-04-08T21:16:24;21.00;;;7.10;;
53714;SDS011;39608;55.630;37.864;2023-04-08T21:21:28;16.38;;;6.93;;
53714;SDS011;39608;55.630;37.864;2023-04-08T21:26:30;16.35;;;6.80;;
53714;SDS011;39608;55.630;37.864;2023-04-08T21:31:33;16.55;;;7.55;;
53714;SDS011;39608;55.630;37.864;2023-04-08T21:36:35;21.17;;;7.80;;
53714;SDS011;39608;55.630;37.864;2023-04-08T21:41:37;26.42;;;8.00;;
53714;SDS011;39608;55.630;37.864;2023-04-08T21:46:41;19.60;;;8.75;;
53714;SDS011;39608;55.630;37.864;2023-04-08T21:51:43;27.38;;;8.75;;
53714;SDS011;39608;55.630;37.864;2023-04-08T21:56:45;23.83;;;8.13;;
53714;SDS011;39608;55.630;37.864;2023-04-08T22:01:48;20.23;;;7.57;;
53714;SDS011;39608;55.630;37.864;2023-04-08T22:06:50;9.90;;;6.07;;
53714;SDS011;39608;55.630;37.864;2023-04-08T22:11:52;15.73;;;6.75;;
53714;SDS011;39608;55.630;37.864;2023-04-08T22:16:58;16.65;;;5.80;;
53714;SDS011;39608;55.630;37.864;2023-04-08T22:22:00;9.95;;;5.00;;
53714;SDS011;39608;55.630;37.864;2023-04-08T22:27:02;14.85;;;6.38;;
53714;SDS011;39608;55.630;37.864;2023-04-08T22:32:06;12.77;;;6.13;;
53714;SDS011;39608;55.630;37.864;2023-04-08T22:37:08;10.73;;;5.55;;
53714;SDS011;39608;55.630;37.864;2023-04-08T22:42:10;11.45;;;5.63;;
53714;SDS011;39608;55.630;37.864;2023-04-08T22:47:13;11.50;;;5.60;;
53714;SDS011;39608;55.630;37.864;2023-04-08T22:52:15;11.15;;;5.75;;
53714;SDS011;39608;55.630;37.864;2023-04-08T22:57:17;9.10;;;5.22;;
53714;SDS011;39608;55.630;37.864;2023-04-08T23:02:20;11.75;;;5.10;;
53714;SDS011;39608;55.630;37.864;2023-04-08T23:07:25;10.90;;;5.60;;
53714;SDS011;39608;55.630;37.864;2023-04-08T23:12:27;9.52;;;6.18;;
53714;SDS011;39608;55.630;37.864;2023-04-08T23:17:30;11.27;;;5.35;;
53714;SDS011;39608;55.630;37.864;2023-04-08T23:22:32;13.68;;;5.57;;
53714;SDS011;39608;55.630;37.864;2023-04-08T23:27:34;12.30;;;5.53;;
53714;SDS011;39608;55.630;37.864;2023-04-08T23:32:37;8.30;;;5.38;;
53714;SDS011;39608;55.630;37.864;2023-04-08T23:37:39;9.20;;;5.85;;
53714;SDS011;39608;55.630;37.864;2023-04-08T23:42:41;11.48;;;6.68;;
53714;SDS011;39608;55.630;37.864;2023-04-08T23:47:45;8.95;;;5.82;;
53714;SDS011;39608;55.630;37.864;2023-04-08T23:52:47;11.57;;;6.28;;
53714;SDS011;39608;55.630;37.864;2023-04-08T23:57:49;9.30;;;5.20;;
